Time;durP1;ratioP1;P1;durP2;ratioP2;P2;SDS_P1;SDS_P2;PMS_P1;PMS_P2;Temp;Humidity;BMP_temperature;BMP_pressure;BME280_temperature;BME280_humidity;BME280_pressure;Samples;Min_cycle;Max_cycle;Signal;HPM_P1;HPM_P2
2023/03/26 00:01:32;;;;;;;9.32;2.65;;;6.90;99.90;;;;;;5017712;28;20044;-59
2023/03/26 00:03:58;;;;;;;9.63;2.90;;;6.90;99.90;;;;;;5017461;28;20025;-59
2023/03/26 00:06:37;;;;;;;16.58;3.47;;;6.90;99.90;;;;;;5024208;28;20111;-58
2023/03/26 00:09:05;;;;;;;11.20;2.97;;;6.90;99.90;;;;;;5020472;28;20491;-60
2023/03/26 00:11:31;;;;;;;11.75;2.90;;;6.90;99.90;;;;;;5019055;28;20021;-59
2023/03/26 00:13:57;;;;;;;6.93;2.55;;;6.90;99.90;;;;;;5028706;28;20391;-54
2023/03/26 00:16:28;;;;;;;7.15;3.38;;;6.90;99.90;;;;;;5019493;28;20116;-54
2023/03/26 00:18:55;;;;;;;11.73;3.45;;;6.90;99.90;;;;;;5016312;28;20072;-59
2023/03/26 00:21:26;;;;;;;10.25;3.30;;;6.90;99.90;;;;;;5026006;28;20484;-60
2023/03/26 00:23:58;;;;;;;11.63;2.72;;;6.80;99.90;;;;;;5022377;28;20056;-55
2023/03/26 00:26:25;;;;;;;8.90;3.28;;;6.90;99.90;;;;;;5022093;28;20088;-58
2023/03/26 00:28:50;;;;;;;11.13;3.28;;;6.90;99.90;;;;;;5017787;28;20499;-63
2023/03/26 00:31:17;;;;;;;14.00;3.85;;;6.90;99.90;;;;;;5025946;28;20060;-56
2023/03/26 00:33:43;;;;;;;10.98;3.55;;;6.90;99.90;;;;;;5024129;28;20616;-57
2023/03/26 00:36:13;;;;;;;12.07;3.55;;;6.90;99.90;;;;;;5020333;28;20039;-61
2023/03/26 00:38:40;;;;;;;12.15;4.28;;;6.90;99.90;;;;;;5026067;28;20439;-60
2023/03/26 00:41:16;;;;;;;15.35;3.30;;;6.90;99.90;;;;;;5014573;28;20037;-60
2023/03/26 00:43:44;;;;;;;13.55;4.13;;;6.90;99.90;;;;;;5019135;28;20566;-59
2023/03/26 00:46:10;;;;;;;16.08;4.47;;;6.90;99.90;;;;;;5015343;28;20486;-59
2023/03/26 00:48:37;;;;;;;12.10;3.95;;;6.90;99.90;;;;;;5013794;28;20057;-58
2023/03/26 00:51:04;;;;;;;8.52;3.60;;;6.90;99.90;;;;;;5017984;28;20030;-60
2023/03/26 00:53:30;;;;;;;13.75;4.68;;;6.90;99.90;;;;;;5017110;28;20037;-60
2023/03/26 00:55:59;;;;;;;14.35;3.83;;;6.90;99.90;;;;;;5024398;28;20017;-57
2023/03/26 00:58:25;;;;;;;9.38;3.78;;;6.80;99.90;;;;;;5020592;28;20037;-57
2023/03/26 01:00:57;;;;;;;8.05;3.30;;;6.80;99.90;;;;;;5010644;28;20475;-58
2023/03/26 01:03:25;;;;;;;9.05;2.60;;;6.80;99.90;;;;;;5011626;28;20550;-60
2023/03/26 01:05:57;;;;;;;9.88;3.22;;;6.80;99.90;;;;;;5018039;28;20091;-58
2023/03/26 01:08:43;;;;;;;8.82;2.58;;;6.70;99.90;;;;;;5021583;28;20029;-57
2023/03/26 01:11:20;;;;;;;;;;;6.70;99.90;;;;;;5016455;28;20029;-59
2023/03/26 01:13:52;;;;;;;7.35;2.78;;;6.80;99.90;;;;;;5020655;28;19928;-61
2023/03/26 01:16:38;;;;;;;7.72;3.13;;;6.80;99.90;;;;;;5021012;28;20116;-60
2023/03/26 01:19:09;;;;;;;7.60;3.10;;;6.80;99.90;;;;;;5012292;28;20253;-61
2023/03/26 01:21:37;;;;;;;12.05;4.00;;;6.70;99.90;;;;;;5015006;28;20033;-60
2023/03/26 01:24:05;;;;;;;15.68;3.45;;;6.70;99.90;;;;;;5012956;28;20076;-60
2023/03/26 01:26:48;;;;;;;7.28;2.40;;;6.70;99.90;;;;;;5023063;28;20021;-61
2023/03/26 01:29:24;;;;;;;19.30;3.60;;;6.70;99.90;;;;;;5013875;28;20068;-58
2023/03/26 01:31:55;;;;;;;;;;;6.70;99.90;;;;;;5014066;28;20038;-61
2023/03/26 01:34:48;;;;;;;11.43;2.10;;;6.60;99.90;;;;;;5012009;28;19955;-59
2023/03/26 01:37:23;;;;;;;7.55;2.50;;;6.60;99.90;;;;;;5011430;28;20103;-60
2023/03/26 01:39:55;;;;;;;8.20;2.47;;;6.50;99.90;;;;;;5012763;28;20022;-60
2023/03/26 01:42:34;;;;;;;10.30;1.80;;;6.50;99.90;;;;;;5013150;28;20542;-59
2023/03/26 01:45:10;;;;;;;9.93;2.13;;;6.40;99.90;;;;;;5015072;28;20112;-58
2023/03/26 01:47:38;;;;;;;5.47;1.40;;;6.40;99.90;;;;;;5018733;28;20100;-61
2023/03/26 01:50:04;;;;;;;6.68;1.42;;;6.40;99.90;;;;;;5023211;28;20541;-57
2023/03/26 01:52:30;;;;;;;8.23;2.35;;;6.40;99.90;;;;;;5017837;28;20036;-55
2023/03/26 01:54:56;;;;;;;6.68;1.88;;;6.30;99.90;;;;;;5022484;28;20026;-57
2023/03/26 01:57:32;;;;;;;6.60;1.73;;;6.30;99.90;;;;;;5026714;28;20340;-58
2023/03/26 02:00:19;;;;;;;7.78;1.92;;;6.20;99.90;;;;;;5015866;28;20049;-60
2023/03/26 02:03:18;;;;;;;7.95;1.70;;;6.20;99.90;;;;;;5024822;28;20056;-54
2023/03/26 02:06:02;;;;;;;10.50;1.95;;;6.20;99.90;;;;;;5019926;28;20084;-58
2023/03/26 02:08:40;;;;;;;3.90;1.42;;;6.20;99.90;;;;;;5023726;28;20112;-61
2023/03/26 02:11:14;;;;;;;9.05;1.95;;;6.10;99.90;;;;;;5005606;28;20018;-57
2023/03/26 02:13:43;;;;;;;8.07;1.83;;;6.10;99.90;;;;;;5022889;28;20073;-55
2023/03/26 02:16:15;;;;;;;7.15;1.98;;;6.10;99.90;;;;;;5022805;28;20033;-59
2023/03/26 02:18:46;;;;;;;9.27;2.33;;;6.10;99.90;;;;;;5014611;28;20024;-58
2023/03/26 02:21:20;;;;;;;9.40;1.88;;;6.10;99.90;;;;;;5022304;28;20056;-57
2023/03/26 02:23:48;;;;;;;6.18;2.17;;;6.10;99.90;;;;;;5018671;28;20196;-60
2023/03/26 02:26:17;;;;;;;13.68;2.15;;;6.10;99.90;;;;;;5015545;28;20092;-61
2023/03/26 02:28:43;;;;;;;8.10;1.80;;;6.10;99.90;;;;;;5015443;28;20467;-58
2023/03/26 02:31:09;;;;;;;12.05;2.25;;;6.10;99.90;;;;;;5018832;28;20120;-60
2023/03/26 02:33:36;;;;;;;7.60;2.13;;;6.00;99.90;;;;;;5020140;28;20026;-59
2023/03/26 02:36:02;;;;;;;9.77;2.67;;;6.00;99.90;;;;;;5015494;28;20033;-57
2023/03/26 02:38:32;;;;;;;12.90;2.60;;;6.00;99.90;;;;;;5021070;28;20029;-55
2023/03/26 02:40:58;;;;;;;5.55;1.88;;;6.00;99.90;;;;;;5008028;28;20050;-58
2023/03/26 02:43:24;;;;;;;8.25;1.85;;;6.00;99.90;;;;;;5013771;28;20053;-57
2023/03/26 02:45:50;;;;;;;8.20;1.83;;;6.00;99.90;;;;;;5020852;28;20065;-54
2023/03/26 02:48:15;;;;;;;9.73;2.45;;;6.10;99.90;;;;;;5023185;28;20017;-59
2023/03/26 02:50:42;;;;;;;7.53;1.80;;;6.00;99.90;;;;;;5021568;28;20030;-56
2023/03/26 02:53:08;;;;;;;5.78;1.60;;;6.00;99.90;;;;;;5014995;28;20062;-58
2023/03/26 02:55:34;;;;;;;5.32;1.33;;;5.90;99.90;;;;;;5024773;28;20049;-59
2023/03/26 02:57:59;;;;;;;5.47;1.60;;;5.90;99.90;;;;;;5024159;28;20033;-56
2023/03/26 03:00:25;;;;;;;1.38;1.15;;;5.90;99.90;;;;;;5011166;28;20034;-60
2023/03/26 03:02:51;;;;;;;4.50;1.50;;;5.90;99.90;;;;;;5025417;28;20059;-57
2023/03/26 03:05:17;;;;;;;5.28;1.08;;;5.80;99.90;;;;;;5018210;28;20068;-56
2023/03/26 03:07:45;;;;;;;2.92;0.88;;;5.70;99.90;;;;;;5025793;28;20025;-60
2023/03/26 03:10:12;;;;;;;1.38;0.90;;;5.70;99.90;;;;;;5020445;28;20022;-53
2023/03/26 03:12:41;;;;;;;7.10;1.40;;;5.60;99.90;;;;;;5021149;28;20037;-60
2023/03/26 03:15:07;;;;;;;3.85;1.58;;;5.60;99.90;;;;;;5022580;28;20395;-56
2023/03/26 03:17:33;;;;;;;4.05;1.30;;;5.60;99.90;;;;;;5009558;28;20107;-58
2023/03/26 03:19:59;;;;;;;5.85;1.15;;;5.60;99.90;;;;;;5020299;28;20471;-59
2023/03/26 03:22:24;;;;;;;2.28;0.88;;;5.60;99.90;;;;;;5022016;28;20034;-57
2023/03/26 03:24:56;;;;;;;2.75;1.50;;;5.60;99.90;;;;;;5026444;28;20399;-56
2023/03/26 03:27:24;;;;;;;3.60;1.10;;;5.50;99.90;;;;;;5017869;28;20026;-60
2023/03/26 03:29:52;;;;;;;4.18;1.38;;;5.50;99.90;;;;;;5027015;28;20120;-57
2023/03/26 03:32:18;;;;;;;6.03;1.02;;;5.50;99.90;;;;;;5016564;28;20049;-60
2023/03/26 03:34:44;;;;;;;5.47;1.50;;;5.50;99.90;;;;;;5022959;28;20029;-58
2023/03/26 03:37:10;;;;;;;6.10;1.30;;;5.50;99.90;;;;;;5022663;28;20087;-58
2023/03/26 03:39:36;;;;;;;5.68;1.50;;;5.50;99.90;;;;;;5018214;28;20038;-59
2023/03/26 03:42:02;;;;;;;3.80;1.02;;;5.40;99.90;;;;;;5023486;28;20048;-54
2023/03/26 03:44:28;;;;;;;2.25;1.25;;;5.40;99.90;;;;;;5011775;28;20076;-56
2023/03/26 03:46:54;;;;;;;7.97;1.65;;;5.40;99.90;;;;;;5027633;28;20030;-58
2023/03/26 03:49:21;;;;;;;7.03;1.50;;;5.40;99.90;;;;;;5022117;28;20030;-51
2023/03/26 03:51:46;;;;;;;6.13;1.45;;;5.40;99.90;;;;;;5012119;28;20500;-58
2023/03/26 03:54:12;;;;;;;7.32;1.80;;;5.40;99.90;;;;;;5019834;28;20037;-57
2023/03/26 03:56:38;;;;;;;5.95;1.90;;;5.40;99.90;;;;;;5025442;28;20499;-55
2023/03/26 03:59:04;;;;;;;13.55;2.25;;;5.40;99.90;;;;;;5025866;28;20112;-57
2023/03/26 04:01:30;;;;;;;6.15;1.60;;;5.40;99.90;;;;;;5020789;28;20135;-56
2023/03/26 04:03:56;;;;;;;7.90;2.08;;;5.40;99.90;;;;;;5017356;28;20032;-57
2023/03/26 04:06:24;;;;;;;6.07;1.88;;;5.40;99.90;;;;;;5023833;28;20524;-54
2023/03/26 04:08:50;;;;;;;6.28;1.83;;;5.40;99.90;;;;;;5020167;28;20030;-58
2023/03/26 04:11:15;;;;;;;7.95;1.95;;;5.40;99.90;;;;;;5023791;28;20029;-58
2023/03/26 04:13:41;;;;;;;8.23;2.10;;;5.40;99.90;;;;;;5024496;28;20026;-55
2023/03/26 04:16:07;;;;;;;6.13;2.10;;;5.40;99.90;;;;;;5025328;28;20079;-57
2023/03/26 04:18:32;;;;;;;6.32;1.50;;;5.40;99.90;;;;;;5021236;28;20075;-56
2023/03/26 04:21:02;;;;;;;4.88;1.58;;;5.30;99.90;;;;;;5021942;28;20021;-58
2023/03/26 04:23:28;;;;;;;9.88;1.88;;;5.30;99.90;;;;;;5017433;28;20088;-56
2023/03/26 04:25:55;;;;;;;9.55;1.95;;;5.30;99.90;;;;;;5027207;28;20502;-60
2023/03/26 04:28:32;;;;;;;3.55;1.63;;;5.30;99.90;;;;;;5023350;28;20026;-58
2023/03/26 04:31:00;;;;;;;7.28;2.33;;;5.30;99.90;;;;;;5007802;28;20092;-59
2023/03/26 04:33:28;;;;;;;10.20;2.05;;;5.30;99.90;;;;;;5021624;28;20037;-60
2023/03/26 04:35:55;;;;;;;11.10;2.42;;;5.30;99.90;;;;;;5019772;28;20091;-61
2023/03/26 04:38:21;;;;;;;9.88;2.15;;;5.30;99.90;;;;;;5017213;28;20578;-57
2023/03/26 04:40:47;;;;;;;7.30;2.58;;;5.30;99.90;;;;;;5019054;28;20036;-56
2023/03/26 04:43:15;;;;;;;7.20;1.52;;;5.30;99.90;;;;;;5018215;28;20021;-58
2023/03/26 04:45:41;;;;;;;3.63;1.10;;;5.30;99.90;;;;;;5019977;28;20052;-60
2023/03/26 04:48:13;;;;;;;4.88;1.50;;;5.20;99.90;;;;;;5028190;28;20484;-56
2023/03/26 04:50:40;;;;;;;6.45;1.40;;;5.20;99.90;;;;;;5024346;28;20028;-59
2023/03/26 04:53:06;;;;;;;5.63;1.23;;;5.10;99.90;;;;;;5016891;28;20025;-54
2023/03/26 04:55:41;;;;;;;5.75;2.03;;;5.10;99.90;;;;;;5027077;28;20017;-57
2023/03/26 04:58:08;;;;;;;7.50;1.60;;;5.10;99.90;;;;;;5024709;28;20376;-57
2023/03/26 05:00:34;;;;;;;7.28;1.40;;;5.00;99.90;;;;;;5019141;28;20084;-57
2023/03/26 05:03:00;;;;;;;7.78;1.60;;;5.00;99.90;;;;;;5020917;28;20391;-56
2023/03/26 05:05:27;;;;;;;6.70;1.17;;;5.00;99.90;;;;;;5015961;28;20026;-58
2023/03/26 05:07:52;;;;;;;6.20;1.10;;;4.90;99.90;;;;;;5028909;28;20013;-58
2023/03/26 05:10:21;;;;;;;5.22;1.40;;;4.90;99.90;;;;;;5017283;28;20492;-57
2023/03/26 05:12:47;;;;;;;9.98;2.00;;;4.90;99.90;;;;;;5019996;28;20040;-58
2023/03/26 05:15:14;;;;;;;5.97;1.38;;;4.90;99.90;;;;;;5023221;28;20030;-57
2023/03/26 05:17:40;;;;;;;9.20;1.30;;;4.80;99.90;;;;;;5020640;28;20108;-55
2023/03/26 05:20:32;;;;;;;6.18;1.55;;;4.90;99.90;;;;;;5024403;28;20347;-56
2023/03/26 05:22:58;;;;;;;5.07;1.67;;;4.90;99.90;;;;;;5006269;28;20037;-56
2023/03/26 05:25:23;;;;;;;4.68;1.73;;;4.90;99.90;;;;;;5018934;28;20491;-60
2023/03/26 05:27:49;;;;;;;7.00;1.10;;;4.90;99.90;;;;;;5019444;28;20528;-55
2023/03/26 05:30:17;;;;;;;5.75;1.55;;;4.90;99.90;;;;;;5023238;28;20480;-57
2023/03/26 05:32:43;;;;;;;5.03;1.17;;;4.90;99.90;;;;;;5012345;28;20029;-57
2023/03/26 05:35:09;;;;;;;5.32;1.25;;;4.90;99.90;;;;;;5020874;28;20556;-53
2023/03/26 05:37:36;;;;;;;6.32;1.40;;;4.80;99.90;;;;;;5022584;28;20022;-57
2023/03/26 05:40:02;;;;;;;5.72;1.75;;;4.90;99.90;;;;;;5022589;28;20029;-60
2023/03/26 05:42:28;;;;;;;5.53;1.27;;;4.90;99.90;;;;;;5017182;28;20048;-56
2023/03/26 05:44:54;;;;;;;8.30;1.88;;;4.90;99.90;;;;;;5017023;28;20026;-55
2023/03/26 05:47:19;;;;;;;6.43;1.73;;;4.90;99.90;;;;;;5024597;28;20404;-53
2023/03/26 05:49:45;;;;;;;5.15;1.50;;;4.90;99.90;;;;;;5020917;28;20523;-55
2023/03/26 05:52:14;;;;;;;3.03;1.20;;;5.00;99.90;;;;;;5010628;28;20464;-51
2023/03/26 05:54:40;;;;;;;5.75;1.40;;;5.00;99.90;;;;;;5013939;28;20030;-56
2023/03/26 05:57:05;;;;;;;5.18;1.70;;;5.00;99.90;;;;;;5018204;28;20510;-57
2023/03/26 05:59:31;;;;;;;12.02;2.13;;;5.00;99.90;;;;;;5012464;28;20053;-59
2023/03/26 06:01:57;;;;;;;5.13;1.90;;;5.00;99.90;;;;;;5013220;28;20088;-56
2023/03/26 06:04:22;;;;;;;4.35;1.50;;;5.00;99.90;;;;;;5020791;28;20060;-59
2023/03/26 06:06:48;;;;;;;6.78;1.70;;;5.00;99.90;;;;;;5017961;28;20057;-57
2023/03/26 06:09:13;;;;;;;8.77;1.83;;;5.10;99.90;;;;;;5014586;28;20049;-56
2023/03/26 06:11:39;;;;;;;11.35;1.63;;;5.10;99.90;;;;;;5013484;28;20076;-59
2023/03/26 06:14:05;;;;;;;9.55;2.35;;;5.10;99.90;;;;;;5022216;28;20079;-59
2023/03/26 06:16:32;;;;;;;5.18;2.00;;;5.10;99.90;;;;;;5021715;28;20060;-54
2023/03/26 06:18:57;;;;;;;12.23;2.80;;;5.10;99.90;;;;;;5015704;28;20021;-57
2023/03/26 06:21:25;;;;;;;6.75;1.80;;;5.10;99.90;;;;;;5014316;28;20045;-60
2023/03/26 06:23:50;;;;;;;15.23;2.20;;;5.10;99.90;;;;;;5012223;28;20036;-54
2023/03/26 06:26:16;;;;;;;6.57;1.45;;;5.10;99.90;;;;;;5019968;28;20029;-58
2023/03/26 06:28:42;;;;;;;8.55;2.22;;;5.20;99.90;;;;;;5021546;28;20017;-63
2023/03/26 06:31:07;;;;;;;9.20;2.33;;;5.20;99.90;;;;;;5024657;28;20040;-58
2023/03/26 06:33:33;;;;;;;10.43;2.55;;;5.20;99.90;;;;;;5014877;28;20488;-57
2023/03/26 06:35:59;;;;;;;11.27;2.15;;;5.20;99.90;;;;;;5018550;28;20028;-55
2023/03/26 06:38:24;;;;;;;7.25;1.80;;;5.20;99.90;;;;;;5019361;28;20489;-54
2023/03/26 06:40:50;;;;;;;7.53;1.67;;;5.30;99.90;;;;;;5019546;28;20575;-54
2023/03/26 06:43:16;;;;;;;5.80;1.98;;;5.30;99.90;;;;;;5014689;28;20033;-59
2023/03/26 06:45:41;;;;;;;6.22;2.05;;;5.30;99.90;;;;;;5017151;28;20096;-53
2023/03/26 06:48:07;;;;;;;12.50;2.45;;;5.40;99.90;;;;;;5020932;28;20057;-57
2023/03/26 06:50:33;;;;;;;9.15;1.70;;;5.40;99.90;;;;;;5015674;28;20025;-54
2023/03/26 06:52:59;;;;;;;7.47;2.08;;;5.40;99.90;;;;;;5015541;28;20447;-56
2023/03/26 06:55:25;;;;;;;11.48;2.47;;;5.30;99.90;;;;;;5021387;28;20520;-56
2023/03/26 06:57:52;;;;;;;10.02;2.20;;;5.40;99.90;;;;;;5023059;28;20502;-52
2023/03/26 07:00:19;;;;;;;8.98;1.80;;;5.50;99.90;;;;;;5016603;28;20030;-52
2023/03/26 07:02:45;;;;;;;8.82;2.15;;;5.50;99.90;;;;;;5022191;28;20030;-54
2023/03/26 07:05:11;;;;;;;10.25;2.30;;;5.50;99.90;;;;;;5015559;28;20096;-57
2023/03/26 07:07:37;;;;;;;9.40;2.25;;;5.50;99.90;;;;;;5023829;28;20107;-55
2023/03/26 07:10:04;;;;;;;7.20;2.05;;;5.50;99.90;;;;;;5017399;28;20496;-55
2023/03/26 07:12:29;;;;;;;11.73;2.58;;;5.50;99.90;;;;;;5016536;28;20526;-55
2023/03/26 07:14:55;;;;;;;11.73;2.00;;;5.50;99.90;;;;;;5014883;28;20030;-55
2023/03/26 07:17:20;;;;;;;11.25;2.08;;;5.60;99.90;;;;;;5008601;28;20413;-58
2023/03/26 07:19:46;;;;;;;8.13;2.45;;;5.60;99.90;;;;;;5017965;28;20033;-57
2023/03/26 07:22:21;;;;;;;8.73;3.05;;;5.70;99.90;;;;;;5012386;28;20045;-51
2023/03/26 07:24:47;;;;;;;7.60;2.67;;;5.60;99.90;;;;;;5020674;28;20033;-56
2023/03/26 07:27:35;;;;;;;8.13;2.83;;;5.60;99.90;;;;;;5013988;28;20025;-52
2023/03/26 07:30:23;;;;;;;8.77;2.15;;;5.60;99.90;;;;;;5011667;28;20435;-52
2023/03/26 07:33:01;;;;;;;11.20;3.15;;;5.60;99.90;;;;;;5019949;28;20030;-51
2023/03/26 07:35:42;;;;;;;18.35;2.75;;;5.50;99.90;;;;;;5018134;28;20113;-57
2023/03/26 07:38:32;;;;;;;13.52;2.53;;;5.50;99.90;;;;;;5013065;28;20033;-57
2023/03/26 07:41:24;;;;;;;15.50;3.53;;;5.50;99.90;;;;;;5017307;28;20534;-57
2023/03/26 07:44:20;;;;;;;12.30;2.58;;;5.60;99.90;;;;;;5015663;28;20037;-57
2023/03/26 07:46:48;;;;;;;9.93;2.47;;;5.60;99.90;;;;;;5024670;28;20084;-53
2023/03/26 07:49:14;;;;;;;11.50;3.13;;;5.60;99.90;;;;;;5020253;28;20026;-57
2023/03/26 07:51:40;;;;;;;6.63;2.05;;;5.60;99.90;;;;;;5011587;28;20477;-53
2023/03/26 07:54:07;;;;;;;9.98;2.28;;;5.70;99.90;;;;;;5012274;28;20113;-55
2023/03/26 07:56:36;;;;;;;8.57;2.17;;;5.70;99.90;;;;;;5018891;28;20018;-56
2023/03/26 07:59:43;;;;;;;9.80;3.20;;;5.70;99.90;;;;;;5018638;28;20025;-53
2023/03/26 08:02:24;;;;;;;8.40;2.42;;;5.70;99.90;;;;;;4971693;28;20030;-56
2023/03/26 08:05:20;;;;;;;9.38;2.25;;;5.90;99.90;;;;;;5016006;28;20048;-57
2023/03/26 08:08:10;;;;;;;10.98;2.35;;;5.80;99.90;;;;;;5022081;28;20025;-55
2023/03/26 08:11:01;;;;;;;13.18;3.55;;;5.90;99.90;;;;;;5019998;28;20034;-53
2023/03/26 08:13:56;;;;;;;10.38;2.63;;;6.00;99.90;;;;;;5023607;28;20490;-54
2023/03/26 08:16:27;;;;;;;12.65;3.33;;;6.00;99.90;;;;;;5016883;28;20029;-53
2023/03/26 08:19:02;;;;;;;14.40;3.35;;;6.10;99.90;;;;;;5021044;28;20013;-57
2023/03/26 08:21:44;;;;;;;17.15;2.58;;;6.20;99.90;;;;;;5026793;28;20403;-57
2023/03/26 08:24:21;;;;;;;9.10;2.05;;;6.20;99.90;;;;;;5022669;28;20504;-56
2023/03/26 08:27:01;;;;;;;17.02;3.80;;;6.30;99.90;;;;;;5027094;28;20074;-56
2023/03/26 08:29:40;;;;;;;16.73;2.53;;;6.30;99.90;;;;;;5025541;28;20472;-58
2023/03/26 08:32:13;;;;;;;7.65;2.67;;;6.30;99.90;;;;;;5002792;28;20433;-57
2023/03/26 08:34:39;;;;;;;10.45;2.03;;;6.40;99.90;;;;;;5020876;28;20037;-60
2023/03/26 08:37:05;;;;;;;13.82;3.40;;;6.50;99.90;;;;;;5025142;28;20021;-53
2023/03/26 08:39:30;;;;;;;12.80;2.65;;;6.50;99.90;;;;;;5020817;28;20113;-54
2023/03/26 08:42:27;;;;;;;15.38;2.72;;;6.60;99.90;;;;;;5021245;28;20025;-54
2023/03/26 08:45:31;;;;;;;12.73;2.72;;;6.60;99.90;;;;;;4997492;28;20029;-56
2023/03/26 08:48:34;;;;;;;12.45;3.05;;;6.70;99.90;;;;;;5020096;28;20056;-53
2023/03/26 08:51:00;;;;;;;11.93;2.47;;;6.60;99.90;;;;;;5016690;28;20032;-56
2023/03/26 08:53:47;;;;;;;10.43;2.60;;;6.50;99.90;;;;;;5017514;28;20026;-55
2023/03/26 08:56:38;;;;;;;6.93;1.83;;;6.50;99.90;;;;;;5020002;28;20461;-56
2023/03/26 08:59:39;;;;;;;11.77;2.53;;;6.50;99.90;;;;;;5015000;28;20068;-55
2023/03/26 09:02:26;;;;;;;10.95;3.35;;;6.60;99.90;;;;;;5014566;28;20052;-53
2023/03/26 09:04:55;;;;;;;12.23;2.30;;;6.80;99.90;;;;;;5023644;28;20026;-58
2023/03/26 09:07:41;;;;;;;10.90;2.60;;;6.70;99.90;;;;;;5024717;28;20025;-53
2023/03/26 09:10:08;;;;;;;12.48;2.72;;;6.70;99.90;;;;;;5017820;28;20547;-56
2023/03/26 09:12:55;;;;;;;8.02;2.40;;;6.90;99.90;;;;;;5026995;28;20013;-56
2023/03/26 09:15:35;;;;;;;6.82;2.00;;;7.10;99.90;;;;;;5022882;28;20030;-56
2023/03/26 09:18:42;;;;;;;8.07;2.08;;;7.30;99.90;;;;;;5015384;28;20025;-57
2023/03/26 09:21:21;;;;;;;9.35;3.15;;;7.50;99.90;;;;;;5012925;28;20029;-51
2023/03/26 09:24:26;;;;;;;7.55;1.83;;;7.60;99.90;;;;;;5021874;28;20032;-51
2023/03/26 09:27:06;;;;;;;9.50;2.78;;;7.60;99.90;;;;;;5025081;28;20104;-56
2023/03/26 09:30:03;;;;;;;12.98;3.35;;;7.70;99.90;;;;;;5013299;28;20061;-50
2023/03/26 09:33:14;;;;;;;10.30;2.30;;;7.40;99.90;;;;;;5036838;28;20046;-51
2023/03/26 09:36:18;;;;;;;11.80;2.35;;;7.30;99.90;;;;;;5015343;28;20014;-56
2023/03/26 09:39:07;;;;;;;11.13;2.85;;;7.30;99.90;;;;;;5024416;28;20028;-56
2023/03/26 09:41:43;;;;;;;11.45;2.53;;;7.60;99.90;;;;;;5021116;28;20480;-54
2023/03/26 09:44:36;;;;;;;11.52;2.03;;;7.90;99.90;;;;;;5015205;28;20087;-54
2023/03/26 09:47:42;;;;;;;7.38;1.80;;;8.10;99.90;;;;;;5016133;28;20029;-54
2023/03/26 09:50:32;;;;;;;11.85;2.85;;;8.20;99.90;;;;;;5009611;28;20040;-59
2023/03/26 09:53:04;;;;;;;9.20;2.47;;;8.10;99.90;;;;;;5012457;28;20188;-57
2023/03/26 09:55:48;;;;;;;12.35;3.13;;;8.10;99.90;;;;;;5019354;28;20076;-58
2023/03/26 09:58:25;;;;;;;14.07;2.35;;;8.20;99.90;;;;;;5023361;28;20022;-57
2023/03/26 10:01:13;;;;;;;6.65;2.13;;;8.40;99.90;;;;;;5012977;28;20094;-56
2023/03/26 10:04:09;;;;;;;16.40;2.83;;;8.50;99.90;;;;;;5022586;28;20064;-60
2023/03/26 10:07:05;;;;;;;15.07;2.90;;;8.30;99.90;;;;;;5015858;28;20091;-59
2023/03/26 10:09:55;;;;;;;9.63;3.03;;;7.90;99.90;;;;;;5018126;28;20412;-59
2023/03/26 10:12:35;;;;;;;11.48;2.25;;;7.60;99.90;;;;;;5020810;28;20256;-56
2023/03/26 10:15:28;;;;;;;8.40;2.20;;;7.40;99.90;;;;;;5016665;28;20032;-60
2023/03/26 10:18:17;;;;;;;9.38;2.80;;;7.60;99.90;;;;;;5020924;28;20030;-55
2023/03/26 10:21:01;;;;;;;7.13;2.05;;;7.90;99.90;;;;;;5014840;28;20237;-61
2023/03/26 10:23:55;;;;;;;10.15;1.95;;;8.30;99.90;;;;;;5014915;28;20076;-58
2023/03/26 10:26:31;;;;;;;8.48;2.05;;;8.80;99.90;;;;;;5016188;28;20383;-56
2023/03/26 10:29:19;;;;;;;6.05;2.10;;;9.00;99.90;;;;;;5016898;28;20072;-58
2023/03/26 10:31:58;;;;;;;12.50;2.67;;;9.20;99.90;;;;;;5016885;28;20034;-59
2023/03/26 10:34:39;;;;;;;12.43;3.15;;;9.20;99.90;;;;;;5014841;28;20484;-59
2023/03/26 10:37:27;;;;;;;10.85;1.95;;;9.30;99.90;;;;;;5009621;28;20068;-60
2023/03/26 10:40:04;;;;;;;8.07;2.78;;;9.50;99.90;;;;;;5021104;28;20139;-59
2023/03/26 10:43:05;;;;;;;21.40;3.47;;;9.60;99.90;;;;;;5017295;28;20688;-57
2023/03/26 10:45:50;;;;;;;11.93;3.10;;;9.50;99.90;;;;;;4966324;28;20038;-58
2023/03/26 10:48:23;;;;;;;12.73;2.10;;;9.40;99.90;;;;;;5005834;28;20384;-56
2023/03/26 10:51:14;;;;;;;8.07;2.65;;;9.10;99.90;;;;;;5019672;28;20021;-59
2023/03/26 10:53:52;;;;;;;6.53;2.33;;;9.00;99.90;;;;;;5016867;28;20025;-58
2023/03/26 10:56:24;;;;;;;15.63;2.90;;;8.90;99.90;;;;;;5024135;28;20425;-59
2023/03/26 10:58:49;;;;;;;7.10;2.22;;;8.70;99.90;;;;;;5022416;28;20019;-60
2023/03/26 11:01:42;;;;;;;8.23;2.35;;;8.80;99.90;;;;;;5019595;28;20033;-58
2023/03/26 11:04:19;;;;;;;9.95;2.15;;;9.00;99.90;;;;;;5010963;28;20038;-58
2023/03/26 11:07:01;;;;;;;8.82;2.25;;;9.40;99.90;;;;;;5019806;28;20022;-57
2023/03/26 11:09:39;;;;;;;12.32;2.70;;;9.50;99.90;;;;;;5023479;28;20403;-59
2023/03/26 11:12:18;;;;;;;7.75;2.28;;;9.70;99.90;;;;;;5020215;28;20075;-57
2023/03/26 11:15:05;;;;;;;11.95;2.00;;;9.70;99.90;;;;;;5025964;28;20608;-57
2023/03/26 11:17:44;;;;;;;7.10;2.58;;;9.60;99.90;;;;;;5009798;28;20034;-57
2023/03/26 11:20:19;;;;;;;9.13;2.10;;;9.30;99.90;;;;;;5014774;28;20029;-59
2023/03/26 11:23:09;;;;;;;6.85;2.45;;;9.30;99.90;;;;;;5009615;28;20018;-58
2023/03/26 11:25:40;;;;;;;8.27;1.60;;;9.40;99.90;;;;;;5013531;28;20095;-57
2023/03/26 11:28:31;;;;;;;13.40;3.10;;;9.50;99.90;;;;;;5006483;28;20018;-54
2023/03/26 11:31:07;;;;;;;11.63;2.10;;;9.50;99.90;;;;;;5011825;28;20030;-58
2023/03/26 11:33:37;;;;;;;;;;;9.30;99.90;;;;;;5022537;28;20022;-59
2023/03/26 11:36:10;;;;;;;8.73;2.08;;;9.20;99.90;;;;;;5019205;28;19905;-59
2023/03/26 11:38:38;;;;;;;8.88;1.80;;;9.20;99.90;;;;;;5023013;28;20083;-51
2023/03/26 11:41:20;;;;;;;10.63;2.08;;;9.10;99.90;;;;;;5012717;28;20029;-55
2023/03/26 11:43:54;;;;;;;11.20;2.42;;;9.10;99.90;;;;;;5019458;28;20022;-52
2023/03/26 11:46:23;;;;;;;10.80;2.38;;;9.10;99.90;;;;;;5026266;28;20057;-53
2023/03/26 11:48:56;;;;;;;8.85;2.95;;;9.10;99.90;;;;;;5026394;28;20029;-54
2023/03/26 11:51:31;;;;;;;10.75;2.42;;;8.90;99.90;;;;;;5013247;28;20038;-53
2023/03/26 11:53:57;;;;;;;13.67;2.57;;;8.90;99.90;;;;;;5017679;28;20037;-53
2023/03/26 11:56:31;;;;;;;7.95;2.92;;;9.00;99.90;;;;;;5015007;28;20033;-60
2023/03/26 11:58:59;;;;;;;11.35;2.30;;;9.20;99.90;;;;;;5018114;28;20026;-58
2023/03/26 12:01:49;;;;;;;9.30;3.08;;;9.40;99.90;;;;;;5017089;28;20038;-61
2023/03/26 12:04:16;;;;;;;14.32;2.70;;;9.50;99.90;;;;;;5014240;28;20485;-58
2023/03/26 12:06:58;;;;;;;7.55;2.17;;;9.60;99.90;;;;;;5051367;22;20068;-60
2023/03/26 12:09:24;;;;;;;10.55;2.35;;;9.40;99.90;;;;;;5054685;28;20028;-60
2023/03/26 12:11:55;;;;;;;6.20;2.38;;;9.40;99.90;;;;;;5063794;28;20024;-60
2023/03/26 12:14:25;;;;;;;8.32;2.72;;;9.40;99.90;;;;;;5062730;28;20020;-58
2023/03/26 12:17:32;;;;;;;6.93;2.17;;;9.40;99.90;;;;;;5059673;28;20500;-61
2023/03/26 12:19:59;;;;;;;7.55;2.30;;;9.40;99.90;;;;;;5052983;28;20520;-60
2023/03/26 12:22:40;;;;;;;10.52;2.15;;;9.40;99.90;;;;;;5059800;28;20074;-59
2023/03/26 12:25:20;;;;;;;10.45;3.38;;;9.40;99.90;;;;;;5053776;28;20067;-60
2023/03/26 12:28:11;;;;;;;7.95;2.33;;;9.40;99.90;;;;;;5062113;28;20025;-60
2023/03/26 12:30:50;;;;;;;10.30;2.95;;;9.50;99.90;;;;;;5060994;28;20143;-59
2023/03/26 12:33:24;;;;;;;11.02;2.15;;;9.60;99.90;;;;;;5064283;28;20020;-60
2023/03/26 12:35:51;;;;;;;5.80;2.22;;;9.60;99.90;;;;;;5058524;28;20111;-60
2023/03/26 12:38:36;;;;;;;8.07;2.22;;;9.70;99.90;;;;;;5065356;28;20035;-61
2023/03/26 12:41:15;;;;;;;11.45;3.00;;;9.70;99.40;;;;;;5060409;28;20104;-61
2023/03/26 12:43:52;;;;;;;7.25;1.70;;;9.70;99.90;;;;;;5057927;28;20040;-59
2023/03/26 12:46:30;;;;;;;10.35;2.65;;;9.70;99.90;;;;;;5058606;28;20379;-60
2023/03/26 12:48:58;;;;;;;7.68;2.00;;;9.80;99.90;;;;;;5057806;28;20027;-60
2023/03/26 12:51:47;;;;;;;9.02;2.35;;;9.90;99.90;;;;;;5058978;28;20024;-58
2023/03/26 12:54:47;;;;;;;11.32;2.05;;;9.80;98.90;;;;;;5050447;28;20032;-61
2023/03/26 12:57:25;;;;;;;8.82;1.98;;;9.70;99.90;;;;;;5049110;28;20020;-60
2023/03/26 13:00:13;;;;;;;14.23;2.83;;;9.70;99.90;;;;;;5060930;28;20027;-60
2023/03/26 13:03:09;;;;;;;9.02;1.60;;;9.80;99.90;;;;;;5063164;28;20116;-61
2023/03/26 13:05:53;;;;;;;7.07;2.10;;;9.80;99.40;;;;;;5056734;28;20021;-58
2023/03/26 13:08:38;;;;;;;9.90;1.65;;;9.70;99.00;;;;;;5058558;28;20029;-59
2023/03/26 13:11:21;;;;;;;7.28;1.95;;;9.60;99.90;;;;;;5048959;28;20421;-61
2023/03/26 13:14:05;;;;;;;7.53;2.25;;;9.60;99.20;;;;;;5066002;28;20075;-59
2023/03/26 13:16:39;;;;;;;9.05;1.95;;;9.60;99.90;;;;;;5061201;28;20053;-61
2023/03/26 13:19:38;;;;;;;9.30;2.40;;;9.60;99.30;;;;;;5060331;28;20032;-60
2023/03/26 13:22:16;;;;;;;15.85;3.75;;;9.60;98.90;;;;;;5056808;28;20386;-59
2023/03/26 13:25:00;;;;;;;15.15;2.58;;;9.60;99.90;;;;;;5065375;28;20017;-60
2023/03/26 13:27:46;;;;;;;9.40;2.22;;;9.60;99.90;;;;;;5056860;28;20017;-59
2023/03/26 13:30:35;;;;;;;11.70;2.35;;;9.70;99.40;;;;;;5055173;28;20017;-59
2023/03/26 13:33:23;;;;;;;13.50;2.70;;;9.70;99.90;;;;;;5049767;28;20095;-58